Time;durP1;ratioP1;P1;durP2;ratioP2;P2;SDS_P1;SDS_P2;PMS_P1;PMS_P2;Temp;Humidity;BMP_temperature;BMP_pressure;BME280_temperature;BME280_humidity;BME280_pressure;Samples;Min_cycle;Max_cycle;Signal;HPM_P1;HPM_P2
2024/01/09 00:01:51;;;;;;;6.07;3.08;;;;;;;2.63;40.83;103233.56;5150600;27;20043;-68
2024/01/09 00:04:19;;;;;;;5.00;3.00;;;;;;;2.59;40.45;103224.97;5149337;27;20122;-68
2024/01/09 00:06:46;;;;;;;5.47;3.13;;;;;;;2.53;40.53;103222.75;5143270;27;20450;-68
2024/01/09 00:09:14;;;;;;;5.75;3.03;;;;;;;2.53;40.79;103222.75;5141611;27;20430;-68
2024/01/09 00:11:42;;;;;;;5.25;2.78;;;;;;;2.54;40.87;103221.78;5152712;27;20072;-68
2024/01/09 00:14:11;;;;;;;5.57;2.90;;;;;;;2.48;41.03;103217.78;5144178;27;20043;-68
2024/01/09 00:16:41;;;;;;;5.65;2.83;;;;;;;2.43;41.58;103221.72;5154330;27;20552;-68
2024/01/09 00:19:08;;;;;;;5.32;3.13;;;;;;;2.42;40.63;103223.53;5146337;27;20172;-68
2024/01/09 00:21:36;;;;;;;5.65;3.22;;;;;;;2.42;40.76;103215.56;5141479;27;20051;-68
2024/01/09 00:24:05;;;;;;;6.18;2.65;;;;;;;2.39;40.88;103213.13;5146168;27;20039;-68
2024/01/09 00:26:32;;;;;;;4.22;2.75;;;;;;;2.46;40.87;103211.72;5149449;27;20111;-68
2024/01/09 00:29:01;;;;;;;5.03;2.95;;;;;;;2.42;41.43;103215.56;5141354;27;20126;-68
2024/01/09 00:31:29;;;;;;;5.53;2.60;;;;;;;2.47;40.92;103216.06;5148271;27;20075;-68
2024/01/09 00:33:58;;;;;;;5.07;3.00;;;;;;;2.44;41.08;103212.78;5143609;27;20051;-68
2024/01/09 00:36:27;;;;;;;4.10;2.50;;;;;;;2.47;41.09;103213.44;5141618;27;20059;-68
2024/01/09 00:38:55;;;;;;;4.97;3.17;;;;;;;2.50;40.60;103207.03;5142061;28;20050;-68
2024/01/09 00:41:22;;;;;;;4.50;2.70;;;;;;;2.51;40.74;103212.25;5143307;28;20150;-68
2024/01/09 00:43:50;;;;;;;4.68;2.53;;;;;;;2.47;40.91;103218.72;5134128;27;20076;-68
2024/01/09 00:46:18;;;;;;;5.63;3.00;;;;;;;2.46;41.22;103206.41;5139616;28;20051;-68
2024/01/09 00:48:47;;;;;;;5.63;3.00;;;;;;;2.48;40.76;103209.81;5142150;27;20070;-68
2024/01/09 00:51:17;;;;;;;5.32;2.50;;;;;;;2.43;41.01;103206.66;5146062;27;20067;-68
2024/01/09 00:53:45;;;;;;;6.38;3.25;;;;;;;2.49;41.00;103205.34;5155004;27;20043;-68
2024/01/09 00:56:13;;;;;;;4.18;2.70;;;;;;;2.42;40.85;103212.06;5149683;27;20105;-68
2024/01/09 00:58:41;;;;;;;5.28;2.70;;;;;;;2.44;41.18;103205.69;5148968;27;20050;-68
2024/01/09 01:01:09;;;;;;;6.45;3.33;;;;;;;2.40;41.50;103208.66;5147660;27;20047;-69
2024/01/09 01:03:37;;;;;;;5.43;3.13;;;;;;;2.36;41.57;103221.31;5148957;27;20050;-68
2024/01/09 01:06:05;;;;;;;6.47;3.03;;;;;;;2.37;41.20;103208.88;5149692;27;20051;-68
2024/01/09 01:08:35;;;;;;;4.55;2.72;;;;;;;2.31;41.66;103214.63;5150528;27;20043;-68
2024/01/09 01:11:03;;;;;;;5.50;2.95;;;;;;;2.31;41.58;103212.81;5146691;27;20053;-68
2024/01/09 01:13:31;;;;;;;4.78;2.70;;;;;;;2.36;41.13;103218.66;5146755;27;20464;-68
2024/01/09 01:15:59;;;;;;;6.53;2.72;;;;;;;2.36;40.83;103210.69;5157397;27;20073;-68
2024/01/09 01:18:26;;;;;;;5.15;3.00;;;;;;;2.35;41.80;103218.75;5152618;27;20042;-68
2024/01/09 01:20:54;;;;;;;6.45;3.05;;;;;;;2.30;41.81;103208.47;5155472;27;20073;-68
2024/01/09 01:23:22;;;;;;;5.45;3.03;;;;;;;2.33;41.44;103210.06;5154760;27;20047;-68
2024/01/09 01:25:51;;;;;;;5.72;2.75;;;;;;;2.31;41.40;103202.22;5154359;27;20059;-68
2024/01/09 01:28:19;;;;;;;5.03;2.55;;;;;;;2.35;41.81;103208.16;5154511;27;20058;-69
2024/01/09 01:30:47;;;;;;;4.85;2.92;;;;;;;2.30;41.94;103216.44;5156751;27;20536;-68
2024/01/09 01:33:15;;;;;;;4.47;2.47;;;;;;;2.26;41.67;103218.47;5152129;27;20065;-68
2024/01/09 01:35:43;;;;;;;4.20;2.75;;;;;;;2.28;41.29;103218.34;5151845;27;20147;-68
2024/01/09 01:38:11;;;;;;;6.53;3.20;;;;;;;2.30;41.87;103219.09;5153396;27;20533;-68
2024/01/09 01:40:38;;;;;;;5.15;2.72;;;;;;;2.34;41.69;103215.25;5156211;27;20050;-68
2024/01/09 01:43:08;;;;;;;6.75;2.85;;;;;;;2.30;41.94;103216.44;5150926;27;20050;-68
2024/01/09 01:45:35;;;;;;;7.85;2.80;;;;;;;2.27;41.68;103219.31;5157143;27;20046;-68
2024/01/09 01:48:04;;;;;;;6.55;3.35;;;;;;;2.29;41.00;103223.56;5136834;27;20047;-68
2024/01/09 01:50:34;;;;;;;7.63;2.90;;;;;;;2.26;41.66;103217.63;5156081;27;20049;-68
2024/01/09 01:53:03;;;;;;;5.10;2.88;;;;;;;2.21;41.06;103217.94;5155324;27;20043;-68
2024/01/09 01:55:32;;;;;;;5.93;3.28;;;;;;;2.19;42.21;103214.56;5156631;27;20051;-68
2024/01/09 01:58:00;;;;;;;4.65;2.42;;;;;;;2.16;42.18;103214.78;5149738;27;20067;-68
2024/01/09 02:00:30;;;;;;;3.83;2.60;;;;;;;2.17;41.49;103213.81;5148227;27;20038;-68
2024/01/09 02:02:58;;;;;;;4.68;2.58;;;;;;;2.15;41.35;103214.88;5145567;27;20080;-68
2024/01/09 02:05:29;;;;;;;3.78;2.40;;;;;;;2.14;41.76;103214.03;5150556;27;20047;-68
2024/01/09 02:07:58;;;;;;;6.18;3.30;;;;;;;2.14;41.53;103206.06;5156608;27;20066;-68
2024/01/09 02:10:26;;;;;;;5.85;3.10;;;;;;;2.18;41.04;103217.31;5148335;27;20043;-68
2024/01/09 02:12:54;;;;;;;5.47;2.72;;;;;;;2.14;41.89;103215.84;5149049;27;20046;-68
2024/01/09 02:15:22;;;;;;;4.78;2.72;;;;;;;2.18;41.09;103214.66;5155788;27;20115;-68
2024/01/09 02:17:51;;;;;;;4.32;2.85;;;;;;;2.15;41.44;103206.91;5151130;27;20051;-68
2024/01/09 02:20:22;;;;;;;5.18;2.90;;;;;;;2.11;41.48;103206.28;5154085;27;20043;-68
2024/01/09 02:22:49;;;;;;;6.80;2.92;;;;;;;2.13;41.69;103203.53;5147822;27;20074;-67
2024/01/09 02:25:17;;;;;;;4.97;2.63;;;;;;;2.13;41.80;103208.84;5152236;27;20076;-68
2024/01/09 02:27:52;;;;;;;4.95;2.55;;;;;;;2.08;41.51;103201.19;5148733;27;20047;-68
2024/01/09 02:30:22;;;;;;;4.75;2.88;;;;;;;2.03;41.90;103202.47;5142749;27;20039;-68
2024/01/09 02:32:51;;;;;;;8.27;2.70;;;;;;;2.02;42.14;103200.78;5144129;27;20079;-68
2024/01/09 02:35:19;;;;;;;4.78;2.40;;;;;;;2.00;41.86;103206.19;5148430;27;20142;-68
2024/01/09 02:37:48;;;;;;;6.55;2.85;;;;;;;1.86;41.80;103188.59;5142412;27;20566;-68
2024/01/09 02:40:15;;;;;;;5.50;3.00;;;;;;;1.98;41.72;103207.25;5147653;27;20180;-68
2024/01/09 02:42:43;;;;;;;5.93;2.85;;;;;;;1.96;41.92;103202.91;5140157;27;20048;-68
2024/01/09 02:45:13;;;;;;;5.95;3.22;;;;;;;1.96;42.05;103202.91;5146092;27;20053;-68
2024/01/09 02:47:43;;;;;;;8.07;2.85;;;;;;;1.97;41.32;103195.81;5145502;27;20100;-68
2024/01/09 02:50:11;;;;;;;5.55;2.65;;;;;;;1.96;41.23;103197.59;5145626;27;20053;-68
2024/01/09 02:52:38;;;;;;;5.57;3.13;;;;;;;1.97;41.70;103198.47;5145891;27;20075;-68
2024/01/09 02:55:07;;;;;;;5.32;3.30;;;;;;;1.97;41.24;103190.50;5101226;27;20137;-68
2024/01/09 02:57:34;;;;;;;4.93;2.90;;;;;;;1.96;41.60;103189.66;5038721;28;20094;-68
2024/01/09 03:00:03;;;;;;;6.53;2.92;;;;;;;1.95;42.07;103185.31;5041763;28;20049;-68
2024/01/09 03:02:31;;;;;;;5.35;3.35;;;;;;;1.96;42.10;103192.31;5042881;28;20045;-68
2024/01/09 03:05:00;;;;;;;5.10;2.83;;;;;;;1.95;41.65;103181.81;5037208;28;20049;-68
2024/01/09 03:07:28;;;;;;;3.67;2.35;;;;;;;1.99;41.68;103180.63;5050854;28;20091;-68
2024/01/09 03:09:56;;;;;;;4.78;2.45;;;;;;;1.95;42.10;103174.69;5040612;27;20383;-68
2024/01/09 03:12:24;;;;;;;4.72;2.53;;;;;;;1.99;41.56;103180.63;5041293;28;20065;-68
2024/01/09 03:14:52;;;;;;;6.03;2.88;;;;;;;1.95;42.29;103172.06;5044070;28;20052;-68
2024/01/09 03:17:20;;;;;;;5.60;3.00;;;;;;;1.95;41.43;103173.84;5034897;28;20057;-68
2024/01/09 03:19:47;;;;;;;5.22;2.80;;;;;;;1.93;41.49;103179.25;5041815;28;20045;-68
2024/01/09 03:22:17;;;;;;;5.70;3.20;;;;;;;1.89;42.48;103175.13;5039449;28;20045;-68
2024/01/09 03:24:44;;;;;;;7.15;3.45;;;;;;;1.91;41.54;103186.47;5037975;28;20068;-68
2024/01/09 03:27:12;;;;;;;5.10;2.72;;;;;;;1.88;42.27;103184.03;5031920;28;20109;-68
2024/01/09 03:29:40;;;;;;;5.18;2.72;;;;;;;1.85;42.30;103173.66;5045785;28;20566;-68
2024/01/09 03:32:09;;;;;;;4.93;2.70;;;;;;;1.80;42.20;103175.78;5038828;28;20041;-68
2024/01/09 03:34:36;;;;;;;5.15;2.47;;;;;;;1.80;43.02;103188.19;5042660;28;20079;-68
2024/01/09 03:37:07;;;;;;;5.85;3.30;;;;;;;1.76;42.07;103171.66;5029038;28;20178;-68
2024/01/09 03:39:36;;;;;;;4.65;2.67;;;;;;;1.80;41.80;103175.78;5044965;28;20105;-68
2024/01/09 03:42:04;;;;;;;5.95;2.65;;;;;;;1.77;41.96;103175.16;5039776;28;20112;-68
2024/01/09 03:44:32;;;;;;;4.53;3.08;;;;;;;1.75;42.77;103175.25;5037536;28;20041;-68
2024/01/09 03:47:00;;;;;;;3.95;2.53;;;;;;;1.79;42.60;103187.34;5040205;28;20294;-67
2024/01/09 03:49:27;;;;;;;7.07;3.03;;;;;;;1.78;42.45;103177.69;5038561;28;20093;-68
2024/01/09 03:51:57;;;;;;;6.30;2.85;;;;;;;1.76;42.79;103181.41;5041918;28;20053;-68
2024/01/09 03:54:25;;;;;;;5.50;2.78;;;;;;;1.68;42.70;103167.88;5047729;28;20047;-68
2024/01/09 03:56:54;;;;;;;4.85;2.83;;;;;;;1.80;42.27;103182.88;5139652;27;20104;-68
2024/01/09 03:59:22;;;;;;;7.10;3.20;;;;;;;1.76;42.83;103181.41;5151735;27;20047;-68
2024/01/09 04:01:50;;;;;;;5.22;2.45;;;;;;;1.76;42.77;103174.28;5152005;27;20108;-68
2024/01/09 04:04:18;;;;;;;4.60;2.65;;;;;;;1.81;42.03;103172.16;5142855;27;20058;-67
2024/01/09 04:06:45;;;;;;;6.63;2.78;;;;;;;1.73;42.50;103177.19;5150055;27;20039;-67
2024/01/09 04:09:13;;;;;;;5.10;3.03;;;;;;;1.74;42.50;103168.25;5143742;27;20568;-68
2024/01/09 04:11:44;;;;;;;6.25;3.03;;;;;;;1.75;42.39;103172.59;5149379;27;20110;-68
2024/01/09 04:14:14;;;;;;;6.88;2.50;;;;;;;1.76;42.35;103165.50;5148041;27;20530;-68
2024/01/09 04:16:45;;;;;;;4.25;2.75;;;;;;;1.77;42.06;103168.03;5151154;27;20496;-68
2024/01/09 04:19:13;;;;;;;5.78;2.80;;;;;;;1.76;42.29;103163.69;5159821;27;20129;-68
2024/01/09 04:21:41;;;;;;;5.47;3.35;;;;;;;1.71;42.73;103165.00;5147145;27;20158;-68
2024/01/09 04:24:09;;;;;;;4.18;2.80;;;;;;;1.62;42.47;103162.03;5138754;27;20050;-68
2024/01/09 04:26:36;;;;;;;5.45;2.90;;;;;;;1.71;42.53;103168.50;5150752;27;20096;-68
2024/01/09 04:29:04;;;;;;;4.38;2.53;;;;;;;1.61;42.76;103164.78;5149091;27;20054;-68
2024/01/09 04:31:33;;;;;;;4.35;2.70;;;;;;;1.69;42.32;103180.16;5153820;27;20043;-66
2024/01/09 04:34:01;;;;;;;4.07;2.67;;;;;;;1.62;42.96;103179.75;5144462;27;20092;-67
2024/01/09 04:36:29;;;;;;;4.10;2.45;;;;;;;1.67;42.89;103182.91;5143778;27;20135;-68
2024/01/09 04:39:00;;;;;;;6.40;3.05;;;;;;;1.62;42.93;103177.94;5145292;27;20073;-67
2024/01/09 04:41:28;;;;;;;6.00;3.08;;;;;;;1.64;42.18;103183.13;5151642;27;20043;-68
2024/01/09 04:43:55;;;;;;;5.15;3.08;;;;;;;1.69;42.33;103183.66;5148148;27;20043;-67
2024/01/09 04:46:23;;;;;;;4.65;3.03;;;;;;;1.65;42.29;103181.34;5153408;27;20065;-67
2024/01/09 04:48:53;;;;;;;4.90;2.70;;;;;;;1.62;42.45;103177.09;5149640;27;20385;-68
2024/01/09 04:51:21;;;;;;;5.38;2.67;;;;;;;1.59;43.16;103188.75;5149108;27;20051;-67
2024/01/09 04:53:49;;;;;;;5.88;3.40;;;;;;;1.56;43.12;103183.66;5147640;27;20067;-68
2024/01/09 04:56:17;;;;;;;5.43;3.13;;;;;;;1.60;42.60;103182.50;5155920;27;20058;-68
2024/01/09 04:58:45;;;;;;;4.65;2.80;;;;;;;1.58;42.95;103180.91;5154988;27;20100;-68
2024/01/09 05:01:12;;;;;;;5.10;3.10;;;;;;;1.66;42.74;103181.22;5158752;27;20042;-68
2024/01/09 05:03:46;;;;;;;7.72;2.70;;;;;;;1.59;43.06;103183.44;5159227;27;20145;-68
2024/01/09 05:06:16;;;;;;;5.78;2.95;;;;;;;1.58;43.27;103186.22;5158675;27;20051;-68
2024/01/09 05:08:45;;;;;;;7.15;3.13;;;;;;;1.61;42.67;103183.34;5153938;27;20309;-68
2024/01/09 05:11:12;;;;;;;7.07;3.42;;;;;;;1.58;42.70;103172.97;5147154;27;20045;-68
2024/01/09 05:13:45;;;;;;;4.35;2.58;;;;;;;1.58;43.23;103175.59;5154075;27;20046;-68
2024/01/09 05:16:13;;;;;;;4.60;2.72;;;;;;;1.52;43.15;103174.22;5151152;27;20420;-68
2024/01/09 05:18:41;;;;;;;6.25;3.30;;;;;;;1.53;43.05;103175.94;5153834;27;20057;-68
2024/01/09 05:21:10;;;;;;;5.30;2.95;;;;;;;1.54;43.24;103179.41;5150043;27;20076;-68
2024/01/09 05:23:39;;;;;;;5.22;2.97;;;;;;;1.55;42.74;103189.91;5151609;27;20049;-68
2024/01/09 05:26:07;;;;;;;6.25;2.75;;;;;;;1.57;42.77;103179.22;5143840;27;20472;-68
2024/01/09 05:28:35;;;;;;;6.05;3.05;;;;;;;1.51;42.90;103179.63;5152503;27;20447;-68
2024/01/09 05:31:03;;;;;;;5.93;3.05;;;;;;;1.52;43.34;103187.47;5149300;27;20039;-68
2024/01/09 05:33:31;;;;;;;5.03;3.15;;;;;;;1.47;43.26;103181.66;5143301;27;20104;-68
2024/01/09 05:36:00;;;;;;;6.00;3.08;;;;;;;1.50;42.99;103181.44;5152562;27;20057;-68
2024/01/09 05:38:27;;;;;;;7.22;3.22;;;;;;;1.45;42.89;103169.44;5153995;27;20061;-68
2024/01/09 05:40:57;;;;;;;6.18;3.08;;;;;;;1.56;43.18;103177.50;5149559;27;20047;-68
2024/01/09 05:43:24;;;;;;;5.60;2.97;;;;;;;1.50;43.88;103178.78;5139073;27;20139;-67
2024/01/09 05:45:52;;;;;;;5.75;3.28;;;;;;;1.47;43.15;103178.16;5147810;27;20039;-68
2024/01/09 05:48:20;;;;;;;5.55;3.17;;;;;;;1.44;43.26;103178.34;5140449;27;20352;-66
2024/01/09 05:50:48;;;;;;;6.43;3.08;;;;;;;1.47;43.37;103171.03;5151204;27;20047;-66
2024/01/09 05:53:16;;;;;;;5.13;3.00;;;;;;;1.44;43.19;103173.06;5149490;27;20060;-67
2024/01/09 05:55:44;;;;;;;5.45;3.25;;;;;;;1.45;43.27;103174.75;5142403;27;20059;-66
2024/01/09 05:58:13;;;;;;;6.20;3.20;;;;;;;1.44;43.16;103175.72;5162207;27;20147;-66
2024/01/09 06:00:41;;;;;;;4.90;3.10;;;;;;;1.43;43.26;103176.66;5149154;27;20042;-67
2024/01/09 06:03:09;;;;;;;5.38;3.17;;;;;;;1.44;43.18;103167.75;5143883;27;20066;-66
2024/01/09 06:05:37;;;;;;;5.40;2.88;;;;;;;1.40;43.13;103179.53;5142928;27;20195;-66
2024/01/09 06:08:06;;;;;;;5.70;2.97;;;;;;;1.39;42.99;103176.03;5149960;27;20058;-68
2024/01/09 06:10:34;;;;;;;8.15;2.92;;;;;;;1.36;42.92;103178.03;5148456;27;20051;-65
2024/01/09 06:13:01;;;;;;;6.88;3.65;;;;;;;1.42;43.40;103181.09;5158906;27;20045;-66
2024/01/09 06:15:31;;;;;;;9.07;3.35;;;;;;;1.54;42.73;103182.91;5147660;27;20137;-68
2024/01/09 06:17:58;;;;;;;5.50;3.22;;;;;;;1.70;42.48;103180.06;5152476;27;20074;-68
2024/01/09 06:20:26;;;;;;;6.47;2.85;;;;;;;1.84;42.37;103177.25;5156505;27;20054;-65
2024/01/09 06:22:54;;;;;;;5.97;3.33;;;;;;;2.01;41.98;103180.53;5147856;27;20067;-68
2024/01/09 06:25:22;;;;;;;6.50;3.75;;;;;;;2.12;41.72;103178.81;5154848;27;20110;-67
2024/01/09 06:27:50;;;;;;;5.88;3.13;;;;;;;2.27;41.36;103179.50;5153777;27;20118;-66
2024/01/09 06:30:18;;;;;;;6.50;3.40;;;;;;;2.42;41.28;103177.56;5144232;27;20047;-69
2024/01/09 06:32:47;;;;;;;6.82;2.95;;;;;;;2.61;40.89;103175.25;5146612;27;20106;-68
2024/01/09 06:35:15;;;;;;;6.13;2.67;;;;;;;2.73;40.58;103174.34;5150064;27;20123;-69
2024/01/09 06:37:44;;;;;;;5.78;3.05;;;;;;;2.83;39.59;103174.53;5153823;27;20049;-70
2024/01/09 06:40:12;;;;;;;6.88;3.70;;;;;;;2.88;40.23;103186.50;4789541;27;10000144;-68
2024/01/09 06:42:40;;;;;;;6.22;3.50;;;;;;;2.96;40.16;103195.69;4776449;27;10000339;-67
2024/01/09 06:45:08;;;;;;;6.07;3.58;;;;;;;3.03;39.55;103196.94;5136236;27;20300;-68
2024/01/09 06:47:36;;;;;;;6.43;3.40;;;;;;;3.03;39.75;103194.28;5140739;27;20142;-65
2024/01/09 06:50:06;;;;;;;6.90;3.38;;;;;;;3.08;39.59;103198.28;5142558;27;20425;-65
2024/01/09 06:52:52;;;;;;;7.97;3.60;;;;;;;3.10;39.55;103206.16;5144629;27;20078;-67
2024/01/09 06:55:20;;;;;;;6.95;3.35;;;;;;;3.00;39.16;103198.00;5100545;27;20064;-63
2024/01/09 06:57:48;;;;;;;8.80;4.10;;;;;;;2.86;39.12;103208.81;5038459;28;20054;-65
2024/01/09 07:00:18;;;;;;;6.20;3.13;;;;;;;2.66;39.96;103202.31;5037489;28;20411;-69
2024/01/09 07:02:46;;;;;;;7.38;3.55;;;;;;;2.51;39.86;103212.25;5052675;27;20042;-66
2024/01/09 07:05:16;;;;;;;7.95;4.00;;;;;;;2.40;40.66;103211.31;5041134;27;20065;-66
2024/01/09 07:07:44;;;;;;;4.75;3.08;;;;;;;2.25;40.78;103210.63;5038998;28;20045;-66
2024/01/09 07:10:17;;;;;;;6.47;3.70;;;;;;;2.10;41.37;103209.06;5044873;28;20494;-65
2024/01/09 07:12:46;;;;;;;6.57;3.55;;;;;;;1.99;41.46;103211.59;5048593;27;20101;-67
2024/01/09 07:15:14;;;;;;;6.60;3.95;;;;;;;1.93;41.37;103219.03;5039427;28;20053;-66
2024/01/09 07:17:45;;;;;;;7.22;3.50;;;;;;;1.96;41.38;103208.22;5041113;28;20065;-67
2024/01/09 07:20:15;;;;;;;5.82;3.65;;;;;;;1.82;41.54;103205.69;5048873;27;20053;-67
2024/01/09 07:22:44;;;;;;;8.82;3.80;;;;;;;1.82;42.00;103216.28;5044225;28;20054;-66
2024/01/09 07:25:16;;;;;;;7.45;3.78;;;;;;;1.80;41.87;103220.84;5041913;28;20144;-67
2024/01/09 07:27:44;;;;;;;5.75;3.20;;;;;;;1.73;42.16;103218.75;5045197;28;20056;-68
2024/01/09 07:30:14;;;;;;;7.60;3.78;;;;;;;1.74;41.94;103218.63;5041583;28;20057;-67
2024/01/09 07:32:42;;;;;;;6.43;3.60;;;;;;;1.76;41.98;103216.72;5042506;28;20053;-68
2024/01/09 07:35:10;;;;;;;5.90;3.53;;;;;;;1.71;42.19;103218.88;5036613;28;20056;-67
2024/01/09 07:37:39;;;;;;;5.93;3.35;;;;;;;1.76;42.12;103219.38;5039884;28;20068;-71
2024/01/09 07:40:08;;;;;;;5.82;3.75;;;;;;;1.92;41.15;103227.94;5040963;28;20429;-68
2024/01/09 07:42:36;;;;;;;5.85;3.35;;;;;;;2.12;41.49;103223.06;5042765;28;20432;-67
2024/01/09 07:45:15;;;;;;;8.25;4.45;;;;;;;2.19;41.26;103233.13;5046174;28;20070;-66
2024/01/09 07:47:43;;;;;;;5.40;3.13;;;;;;;2.31;40.76;103241.16;5042436;28;20045;-66
2024/01/09 07:50:11;;;;;;;11.35;3.35;;;;;;;2.28;41.33;103239.59;5039080;28;20431;-66
2024/01/09 07:52:40;;;;;;;6.75;3.50;;;;;;;2.26;40.65;103242.34;5046297;28;20045;-66
2024/01/09 07:55:08;;;;;;;4.75;3.10;;;;;;;2.17;41.44;103250.94;5045058;28;20082;-69
2024/01/09 07:57:36;;;;;;;6.18;3.67;;;;;;;2.23;41.10;103241.72;5038168;28;20049;-66
2024/01/09 08:00:05;;;;;;;6.72;3.17;;;;;;;2.36;40.43;103252.31;5028920;28;20103;-67
2024/01/09 08:02:33;;;;;;;6.63;3.88;;;;;;;2.46;40.38;103246.22;4693697;28;9999815;-66
2024/01/09 08:05:01;;;;;;;6.13;3.42;;;;;;;2.61;40.89;103245.13;5041019;28;20082;-66
2024/01/09 08:07:28;;;;;;;7.40;3.97;;;;;;;2.60;40.67;103248.75;5041122;28;20094;-66
2024/01/09 08:09:58;;;;;;;6.63;3.50;;;;;;;2.77;40.51;103250.16;5039819;28;20048;-66
2024/01/09 08:12:26;;;;;;;5.68;3.67;;;;;;;2.99;39.53;103244.13;5038315;28;20052;-66
2024/01/09 08:14:53;;;;;;;5.85;3.53;;;;;;;3.11;39.61;103243.22;5036715;28;20062;-66
2024/01/09 08:17:22;;;;;;;6.53;3.58;;;;;;;3.19;38.85;103232.88;5042103;28;20089;-65
2024/01/09 08:19:50;;;;;;;7.35;3.92;;;;;;;3.26;39.27;103243.88;5041923;28;20045;-66
2024/01/09 08:22:18;;;;;;;7.43;4.15;;;;;;;3.29;39.00;103248.13;5042341;28;20057;-66
2024/01/09 08:24:46;;;;;;;6.70;3.40;;;;;;;3.35;38.65;103248.50;5041251;28;20454;-66
2024/01/09 08:27:15;;;;;;;6.88;4.20;;;;;;;3.27;38.60;103242.94;5048383;28;20074;-66
2024/01/09 08:29:44;;;;;;;8.40;3.88;;;;;;;3.25;39.53;103244.84;5039286;28;20500;-66
2024/01/09 08:32:15;;;;;;;6.55;4.03;;;;;;;3.22;38.57;103248.59;5046099;28;20081;-67
2024/01/09 08:34:43;;;;;;;7.38;4.50;;;;;;;3.05;38.72;103246.34;5043980;28;20080;-66
2024/01/09 08:37:11;;;;;;;7.88;3.45;;;;;;;3.08;39.50;103245.25;5042741;27;20054;-66
2024/01/09 08:39:39;;;;;;;10.23;4.15;;;;;;;3.12;38.69;103244.91;5039978;28;20076;-66
2024/01/09 08:42:07;;;;;;;6.15;3.55;;;;;;;3.16;39.02;103251.69;5042684;28;20076;-66
2024/01/09 08:44:36;;;;;;;8.90;4.03;;;;;;;3.22;39.06;103253.06;5042445;28;20049;-66
2024/01/09 08:47:04;;;;;;;7.18;3.70;;;;;;;3.25;38.90;103255.47;5040174;28;20049;-66
2024/01/09 08:49:32;;;;;;;8.68;3.13;;;;;;;3.30;38.70;103255.13;5038831;28;20045;-66
2024/01/09 08:52:00;;;;;;;8.77;4.35;;;;;;;3.31;39.29;103259.50;5043217;27;20093;-66
2024/01/09 08:54:28;;;;;;;6.07;3.55;;;;;;;3.33;38.54;103253.09;5038096;28;20062;-67
2024/01/09 08:56:56;;;;;;;12.07;4.00;;;;;;;3.38;38.87;103258.91;5036232;28;20061;-66
2024/01/09 08:59:24;;;;;;;6.75;3.70;;;;;;;3.38;38.73;103255.41;5048374;27;20066;-66
2024/01/09 09:01:53;;;;;;;7.43;4.18;;;;;;;3.41;39.18;103255.19;5037319;28;20117;-67
2024/01/09 09:04:21;;;;;;;6.53;3.75;;;;;;;3.43;38.77;103253.25;5041040;28;20105;-67
2024/01/09 09:06:49;;;;;;;7.95;4.43;;;;;;;3.45;38.42;103256.63;5044208;28;20073;-68
2024/01/09 09:09:17;;;;;;;5.78;3.47;;;;;;;3.47;38.49;103257.34;5038371;28;20073;-67
2024/01/09 09:11:44;;;;;;;7.07;3.95;;;;;;;3.35;39.05;103252.97;5035794;28;20095;-67
2024/01/09 09:14:12;;;;;;;6.07;3.65;;;;;;;3.32;39.01;103255.88;5042005;28;20068;-67
2024/01/09 09:16:41;;;;;;;6.88;4.07;;;;;;;3.32;38.87;103253.22;5040842;28;20450;-67
2024/01/09 09:19:12;;;;;;;7.35;3.83;;;;;;;3.30;38.77;103252.47;5045126;27;20081;-67
2024/01/09 09:21:40;;;;;;;6.40;4.00;;;;;;;3.28;38.99;103260.56;5042597;27;20079;-68
2024/01/09 09:24:08;;;;;;;7.75;4.15;;;;;;;3.32;39.21;103258.53;5041303;28;20050;-67
2024/01/09 09:26:37;;;;;;;9.15;4.28;;;;;;;3.15;39.33;103251.81;5034489;28;20053;-67
2024/01/09 09:29:05;;;;;;;8.02;3.88;;;;;;;3.23;38.40;103268.88;5039063;28;20064;-67
2024/01/09 09:31:49;;;;;;;6.88;4.25;;;;;;;3.29;39.21;103258.75;5041825;27;20121;-67
2024/01/09 09:34:18;;;;;;;8.13;4.20;;;;;;;3.33;38.86;103260.22;5044802;28;20098;-67
2024/01/09 09:36:46;;;;;;;9.35;4.10;;;;;;;3.32;38.75;103240.78;5037566;27;20087;-68
2024/01/09 09:39:14;;;;;;;6.53;3.92;;;;;;;3.21;39.43;103254.88;5044511;28;20045;-66
2024/01/09 09:41:44;;;;;;;7.97;4.00;;;;;;;3.10;39.68;103257.47;5043374;28;20094;-67
2024/01/09 09:44:15;;;;;;;7.05;4.47;;;;;;;2.86;39.63;103249.50;5037336;28;20054;-66
2024/01/09 09:46:45;;;;;;;7.80;4.00;;;;;;;2.76;39.47;103256.44;5047986;28;20137;-67
2024/01/09 09:49:14;;;;;;;9.38;4.25;;;;;;;2.68;39.86;103252.66;5047846;28;20061;-66
2024/01/09 09:51:45;;;;;;;5.43;3.67;;;;;;;2.53;40.63;103257.25;5044993;28;20045;-66
2024/01/09 09:54:14;;;;;;;8.43;4.25;;;;;;;2.53;40.80;103258.09;5046460;28;20078;-66
2024/01/09 09:56:42;;;;;;;7.07;4.20;;;;;;;2.67;40.75;103257.09;5137467;27;20058;-66
2024/01/09 09:59:11;;;;;;;6.78;3.78;;;;;;;2.85;40.37;103245.16;5145493;27;20131;-66
2024/01/09 10:01:41;;;;;;;6.90;3.70;;;;;;;3.04;39.88;103249.09;5142075;27;20146;-66
2024/01/09 10:04:20;;;;;;;7.80;4.15;;;;;;;3.24;39.39;103246.66;5147251;27;20128;-66
2024/01/09 10:06:50;;;;;;;7.40;4.00;;;;;;;3.36;38.78;103250.22;5144062;27;20043;-66
2024/01/09 10:09:18;;;;;;;11.15;4.28;;;;;;;3.30;39.18;103247.16;5143043;27;20039;-66
2024/01/09 10:11:49;;;;;;;6.88;4.40;;;;;;;3.43;38.59;103250.59;5148723;27;20043;-66
2024/01/09 10:14:17;;;;;;;8.57;4.68;;;;;;;3.39;39.18;103243.81;5144973;27;20051;-66
2024/01/09 10:16:53;;;;;;;7.13;3.90;;;;;;;3.36;39.11;103244.88;5141588;27;20153;-69
2024/01/09 10:19:22;;;;;;;6.95;4.15;;;;;;;3.28;38.54;103241.97;5145419;27;20064;-65
2024/01/09 10:21:52;;;;;;;7.53;4.72;;;;;;;3.14;39.03;103235.03;5143377;27;20080;-66
2024/01/09 10:24:20;;;;;;;7.10;4.13;;;;;;;3.05;40.04;103238.38;5144034;27;20042;-66
2024/01/09 10:26:51;;;;;;;6.85;4.13;;;;;;;2.83;39.96;103241.75;5143309;27;20484;-66
2024/01/09 10:29:19;;;;;;;9.43;4.53;;;;;;;2.78;40.19;103235.09;5141203;27;20069;-66
2024/01/09 10:31:48;;;;;;;7.22;3.75;;;;;;;2.68;40.56;103242.03;5142944;27;20050;-66
2024/01/09 10:34:15;;;;;;;7.88;4.63;;;;;;;2.62;40.62;103235.34;5143266;27;20408;-66
2024/01/09 10:36:43;;;;;;;6.47;3.92;;;;;;;2.58;40.90;103245.34;5144816;27;20051;-66
2024/01/09 10:39:13;;;;;;;11.77;4.25;;;;;;;2.59;41.03;103240.88;5146051;27;20051;-66
2024/01/09 10:41:41;;;;;;;11.25;4.30;;;;;;;2.49;40.78;103237.19;5142783;27;20047;-65
2024/01/09 10:44:14;;;;;;;5.28;3.42;;;;;;;2.50;40.82;103234.44;5141635;27;20151;-65
2024/01/09 10:46:43;;;;;;;7.57;4.05;;;;;;;2.44;41.26;103231.38;5141980;27;20047;-65
2024/01/09 10:49:12;;;;;;;9.07;4.88;;;;;;;2.40;41.36;103238.72;5142897;27;20118;-65
2024/01/09 10:51:41;;;;;;;7.65;4.40;;;;;;;2.37;41.67;103230.13;5140993;27;20068;-65
2024/01/09 10:54:12;;;;;;;8.07;3.63;;;;;;;2.39;41.33;103226.41;5145844;27;20055;-65
2024/01/09 10:56:42;;;;;;;9.23;4.07;;;;;;;2.29;41.22;103231.50;5098248;27;1094456;-68
2024/01/09 10:59:12;;;;;;;8.23;4.40;;;;;;;2.24;41.42;103223.03;5146823;27;20058;-66
2024/01/09 11:01:40;;;;;;;7.15;4.18;;;;;;;2.17;41.40;103213.81;5144117;27;20043;-66
2024/01/09 11:04:08;;;;;;;8.80;5.30;;;;;;;2.01;41.37;103212.34;5147297;27;20047;-66
2024/01/09 11:06:37;;;;;;;6.72;3.85;;;;;;;2.12;41.65;103196.53;5142702;27;20067;-66
2024/01/09 11:09:11;;;;;;;8.90;4.30;;;;;;;2.13;41.34;103195.56;5143791;27;20076;-66
2024/01/09 11:11:41;;;;;;;7.88;4.50;;;;;;;2.17;41.08;103195.25;5140784;27;20046;-66
2024/01/09 11:14:11;;;;;;;7.72;4.07;;;;;;;2.20;41.60;103192.38;5145884;27;20104;-66
2024/01/09 11:16:44;;;;;;;7.53;4.20;;;;;;;2.25;41.50;103189.38;5141864;27;20047;-66
2024/01/09 11:19:14;;;;;;;6.78;4.32;;;;;;;2.06;41.72;103170.44;5144651;27;20084;-66
2024/01/09 11:21:42;;;;;;;7.90;4.43;;;;;;;2.12;42.28;103180.63;5148827;27;20043;-66
2024/01/09 11:24:10;;;;;;;7.72;3.95;;;;;;;2.13;41.29;103166.41;5142239;27;20086;-66
2024/01/09 11:26:41;;;;;;;6.40;4.20;;;;;;;2.15;41.68;103172.44;5143872;27;20138;-65
2024/01/09 11:29:10;;;;;;;7.55;4.05;;;;;;;2.05;42.02;103180.19;5143292;27;20575;-67
2024/01/09 11:31:39;;;;;;;6.82;4.00;;;;;;;2.13;41.32;103177.00;5140380;27;20111;-67
2024/01/09 11:34:07;;;;;;;6.93;3.83;;;;;;;2.15;41.81;103172.44;5144576;27;20070;-67
2024/01/09 11:36:34;;;;;;;6.50;3.88;;;;;;;2.17;41.46;103168.72;5140754;27;20043;-68
2024/01/09 11:39:07;;;;;;;8.80;3.92;;;;;;;2.21;42.25;103164.03;5146587;27;20051;-67
2024/01/09 11:41:37;;;;;;;7.80;4.38;;;;;;;2.21;42.21;103151.63;5142953;27;20169;-67